Time;durP1;ratioP1;P1;durP2;ratioP2;P2;SDS_P1;SDS_P2;PMS_P1;PMS_P2;Temp;Humidity;BMP_temperature;BMP_pressure;BME280_temperature;BME280_humidity;BME280_pressure;Samples;Min_cycle;Max_cycle;Signal;HPM_P1;HPM_P2
2022/01/19 00:02:30;;;;;;;5.67;3.25;;;;;;;-3.14;70.09;100828.93;1733145;83;21392;-62
2022/01/19 00:05:39;;;;;;;5.90;3.10;;;;;;;-3.11;70.06;100838.14;1733179;82;21411;-61
2022/01/19 00:08:44;;;;;;;4.92;2.90;;;;;;;-3.11;69.97;100831.94;1733630;82;21234;-61
2022/01/19 00:11:49;;;;;;;4.35;2.80;;;;;;;-3.09;69.91;100846.09;1733436;82;21380;-61
2022/01/19 00:14:56;;;;;;;5.37;3.30;;;;;;;-3.08;69.81;100847.34;1733087;83;21230;-61
2022/01/19 00:18:03;;;;;;;6.62;3.10;;;;;;;-3.10;69.74;100862.65;1733165;82;21384;-60
2022/01/19 00:21:08;;;;;;;5.47;2.90;;;;;;;-3.08;69.79;100863.91;1681209;84;21212;-61
2022/01/19 00:24:14;;;;;;;4.83;2.87;;;;;;;-3.06;69.70;100858.85;1680591;85;21239;-62
2022/01/19 00:27:25;;;;;;;4.33;2.72;;;;;;;-3.08;69.58;100854.53;1662987;85;21236;-60
2022/01/19 00:30:33;;;;;;;;;;;;;;;-3.08;69.58;100870.10;1684200;82;21228;-60
2022/01/19 00:33:41;;;;;;;4.83;3.15;;;;;;;-3.04;69.56;100870.82;1733138;83;20321;-61
2022/01/19 00:36:48;;;;;;;4.60;3.17;;;;;;;-3.03;69.41;100871.23;1733305;81;21318;-60
2022/01/19 00:39:54;;;;;;;5.40;3.55;;;;;;;-3.05;69.26;100883.83;1732490;82;21372;-62
2022/01/19 00:43:00;;;;;;;5.67;3.52;;;;;;;-3.04;69.33;100877.52;1733218;82;21404;-61
2022/01/19 00:46:06;;;;;;;4.37;2.98;;;;;;;-3.02;69.16;100866.27;1733614;82;21742;-61
2022/01/19 00:49:12;;;;;;;5.95;3.33;;;;;;;-3.01;68.85;100867.14;1733090;82;21242;-61
2022/01/19 00:52:18;;;;;;;8.80;3.72;;;;;;;-3.08;68.76;100875.95;1732856;82;21368;-61
2022/01/19 00:55:27;;;;;;;5.97;3.27;;;;;;;-3.10;68.83;100877.84;1733395;82;21369;-61
2022/01/19 00:58:32;;;;;;;5.92;3.35;;;;;;;-3.07;69.09;100875.00;1738685;81;21293;-62
2022/01/19 01:01:37;;;;;;;5.72;3.33;;;;;;;-3.03;69.10;100872.58;1669971;86;21231;-60
2022/01/19 01:04:44;;;;;;;6.37;3.33;;;;;;;-3.03;68.75;100865.00;1732504;83;21454;-61
2022/01/19 01:07:50;;;;;;;7.42;3.80;;;;;;;-3.08;68.77;100866.58;1733431;82;21360;-62
2022/01/19 01:10:58;;;;;;;6.85;3.10;;;;;;;-3.09;68.75;100867.51;1733012;82;21940;-61
2022/01/19 01:20:30;;;;;;;8.58;3.67;;;;;;;-3.11;68.76;100884.98;1724919;83;21269;-59
2022/01/19 01:23:37;;;;;;;5.80;3.17;;;;;;;-3.16;68.72;100866.11;1733144;82;21371;-61
2022/01/19 01:26:43;;;;;;;4.17;3.10;;;;;;;-3.19;68.88;100863.59;1733876;82;21199;-61
2022/01/19 01:29:49;;;;;;;3.47;2.22;;;;;;;-3.17;69.05;100861.22;1733331;82;21238;-61
2022/01/19 01:32:55;;;;;;;4.58;2.67;;;;;;;-3.14;68.97;100880.29;1737864;81;21920;-62
2022/01/19 01:36:01;;;;;;;4.00;3.00;;;;;;;-3.17;68.91;100913.41;1738780;82;21340;-61
2022/01/19 01:39:09;;;;;;;5.62;3.20;;;;;;;-3.18;68.92;100894.30;1738720;82;21234;-62
2022/01/19 01:42:24;;;;;;;5.67;3.20;;;;;;;-3.17;69.00;100910.73;1721719;82;21222;-61
2022/01/19 01:45:32;;;;;;;4.45;3.30;;;;;;;-3.18;68.96;100906.80;1738752;81;21423;-61
2022/01/19 01:48:42;;;;;;;5.62;3.00;;;;;;;-3.19;69.05;100914.45;1738815;82;21388;-60
2022/01/19 01:55:11;;;;;;;6.70;2.83;;;;;;;-3.15;69.12;100933.41;1738901;82;21360;-62
2022/01/19 01:58:18;;;;;;;4.17;2.85;;;;;;;-3.14;68.99;100901.70;1738726;82;21238;-61
2022/01/19 02:01:43;;;;;;;;;;;;;;;-3.13;68.90;100916.35;1727251;82;21249;-62
2022/01/19 02:04:49;;;;;;;5.28;3.27;;;;;;;-3.13;68.84;100924.84;1738697;82;20281;-62
2022/01/19 02:08:07;;;;;;;4.03;3.02;;;;;;;-3.14;68.84;100924.45;1738700;82;21225;-61
2022/01/19 02:11:34;;;;;;;;;;;;;;;-3.13;68.72;100922.16;1741279;82;21873;-61
2022/01/19 02:21:40;;;;;;;5.97;3.10;;;;;;;-3.24;68.74;100933.88;1738708;82;21194;-61
2022/01/19 02:24:49;;;;;;;5.10;2.87;;;;;;;-3.24;68.87;100940.57;1738897;82;21442;-61
2022/01/19 02:41:22;;;;;;;4.37;2.62;;;;;;;-3.33;69.14;100935.68;1715867;83;21912;-61
2022/01/19 02:46:31;;;;;;;4.72;3.00;;;;;;;-3.35;69.14;100941.57;1716027;83;21369;-61
2022/01/19 02:51:01;;;;;;;;;;;;;;;-3.38;69.26;100949.75;1718571;83;21348;-60
2022/01/19 02:54:08;;;;;;;4.05;2.85;;;;;;;-3.39;69.28;100943.52;1716415;83;20295;-63
2022/01/19 02:57:17;;;;;;;4.67;3.10;;;;;;;-3.41;69.42;100937.38;1715669;83;21311;-61
2022/01/19 03:10:25;;;;;;;5.10;3.00;;;;;;;-3.45;69.54;100965.70;1716232;83;20269;-61
2022/01/19 03:13:30;;;;;;;4.58;3.02;;;;;;;-3.51;69.67;100971.34;1715549;83;21274;-61
2022/01/19 03:16:39;;;;;;;6.50;3.27;;;;;;;-3.58;69.74;100947.16;1716009;83;21528;-61
2022/01/19 03:19:46;;;;;;;6.80;3.05;;;;;;;-3.63;69.96;100954.06;1716050;83;21356;-60
2022/01/19 03:26:06;;;;;;;5.17;3.35;;;;;;;-3.64;69.97;100967.52;1715329;83;21886;-63
2022/01/19 03:29:19;;;;;;;5.33;2.77;;;;;;;-3.64;70.04;100952.80;1714911;83;21412;-63
2022/01/19 03:32:25;;;;;;;4.37;2.45;;;;;;;-3.60;70.02;100969.12;1715986;83;21341;-61
2022/01/19 03:35:38;;;;;;;5.25;2.77;;;;;;;-3.58;69.73;100966.75;1733298;79;21218;-60
2022/01/19 03:38:43;;;;;;;6.25;3.47;;;;;;;-3.64;69.48;100971.52;1733625;82;21473;-60
2022/01/19 03:41:51;;;;;;;12.93;2.67;;;;;;;-3.65;69.50;100997.43;1732988;82;21344;-62
2022/01/19 03:44:59;;;;;;;4.55;3.20;;;;;;;-3.63;69.42;101001.38;1733151;82;21231;-61
2022/01/19 03:51:30;;;;;;;28.15;11.83;;;;;;;-3.64;69.26;100996.94;1733692;82;21190;-62
2022/01/19 03:54:39;;;;;;;8.75;5.42;;;;;;;-3.62;69.23;100997.28;1733111;83;21360;-60
2022/01/19 03:57:50;;;;;;;5.10;3.57;;;;;;;-3.62;69.07;101002.63;1733379;83;21368;-62
2022/01/19 04:00:59;;;;;;;5.40;2.70;;;;;;;-3.60;68.92;100983.83;1733183;83;21665;-61
2022/01/19 04:04:31;;;;;;;4.97;2.80;;;;;;;-3.59;68.69;101009.63;1733257;83;22852;-63
2022/01/19 04:07:24;;;;;;;6.70;2.70;;;;;;;-3.60;68.59;101010.59;1733146;83;21389;-62
2022/01/19 04:10:32;;;;;;;6.20;2.80;;;;;;;-3.61;68.44;101016.86;1732548;83;21404;-61
2022/01/19 04:14:21;;;;;;;4.15;2.75;;;;;;;-3.62;68.24;101035.19;1733125;82;21289;-61
2022/01/19 04:17:12;;;;;;;6.03;2.65;;;;;;;-3.61;68.19;101030.23;1733251;83;21344;-63
2022/01/19 04:20:22;;;;;;;5.10;2.70;;;;;;;-3.61;67.94;101046.28;1733080;83;21384;-61
2022/01/19 04:23:34;;;;;;;3.98;2.50;;;;;;;-3.65;67.46;101048.25;1733582;82;21384;-61
2022/01/19 04:26:40;;;;;;;4.97;3.30;;;;;;;-3.67;67.51;101040.77;1733189;82;21211;-60
2022/01/19 04:29:49;;;;;;;4.95;2.77;;;;;;;-3.66;67.41;101057.66;1732850;82;21369;-62
2022/01/19 04:36:26;;;;;;;5.03;2.30;;;;;;;-3.83;67.14;101058.44;1734602;79;21857;-62
2022/01/19 05:06:19;;;;;;;5.62;2.98;;;;;;;-3.74;68.19;101070.54;1802427;78;21371;-62
2022/01/19 05:15:55;;;;;;;7.65;3.47;;;;;;;-3.58;68.36;101076.90;1802185;79;21374;-62
2022/01/19 05:19:03;;;;;;;6.90;3.95;;;;;;;-3.58;68.04;101072.42;1789603;80;21371;-61
2022/01/19 05:22:11;;;;;;;9.08;3.95;;;;;;;-3.55;68.08;101084.81;1796670;79;21233;-63
2022/01/19 05:25:18;;;;;;;4.10;3.22;;;;;;;-3.47;68.13;101081.28;1796994;79;21336;-62
2022/01/19 05:28:34;;;;;;;4.47;3.30;;;;;;;-3.49;67.97;101081.85;1798312;78;21417;-62
2022/01/19 05:31:43;;;;;;;6.08;3.67;;;;;;;-3.54;68.01;101067.81;1798238;79;21193;-62
2022/01/19 05:34:48;;;;;;;3.40;2.83;;;;;;;-3.56;68.03;101084.39;1714726;82;21336;-63
2022/01/19 05:38:14;;;;;;;5.22;3.02;;;;;;;-3.57;68.07;101084.85;1735315;82;21745;-63
2022/01/19 05:41:24;;;;;;;5.70;3.00;;;;;;;-3.55;67.92;101087.00;1728576;83;21185;-61
2022/01/19 05:44:31;;;;;;;7.58;4.92;;;;;;;-3.54;67.82;101105.27;1735631;82;21717;-63
2022/01/19 05:47:42;;;;;;;6.60;4.20;;;;;;;-3.52;67.60;101096.71;1730646;83;21597;-62
2022/01/19 05:50:45;;;;;;;7.58;3.47;;;;;;;-3.49;67.71;101104.10;1733883;81;21189;-63
2022/01/19 05:53:54;;;;;;;5.75;3.25;;;;;;;-3.45;67.73;101095.47;1763459;80;21229;-63
2022/01/19 05:57:03;;;;;;;7.08;3.25;;;;;;;-3.47;67.44;101103.57;1732456;79;21303;-63
2022/01/19 06:00:13;;;;;;;7.28;4.30;;;;;;;-3.48;67.40;101109.00;1732412;82;21240;-63
2022/01/19 06:03:17;;;;;;;9.13;4.65;;;;;;;-3.48;67.30;101117.02;1735770;82;21275;-63
2022/01/19 06:06:41;;;;;;;5.00;3.40;;;;;;;-3.46;67.20;101125.86;1733742;82;21225;-64
2022/01/19 06:10:06;;;;;;;6.05;3.65;;;;;;;-3.43;67.08;101131.06;1740394;81;21767;-63
2022/01/19 06:13:15;;;;;;;4.47;3.47;;;;;;;-3.43;66.81;101138.63;1740383;81;21717;-62
2022/01/19 06:16:20;;;;;;;5.75;3.77;;;;;;;-3.45;66.64;101149.88;1771420;80;21193;-62
2022/01/19 06:19:29;;;;;;;5.35;3.50;;;;;;;-3.47;66.34;101149.06;1753025;82;21313;-62
2022/01/19 06:22:39;;;;;;;7.12;4.33;;;;;;;-3.48;65.99;101150.47;1739277;81;21208;-64
2022/01/19 06:25:46;;;;;;;5.75;3.50;;;;;;;-3.48;66.13;101160.72;1743401;81;21209;-63
2022/01/19 06:28:54;;;;;;;5.85;3.40;;;;;;;-3.42;66.89;101175.61;1759290;81;21281;-64
2022/01/19 06:32:00;;;;;;;6.22;3.70;;;;;;;-3.36;67.34;101169.97;1757150;81;21331;-64
2022/01/19 06:35:10;;;;;;;7.25;3.70;;;;;;;-3.32;67.68;101182.30;1744968;81;21206;-62
2022/01/19 06:38:33;;;;;;;7.20;3.72;;;;;;;-3.23;67.81;101192.12;1734371;81;21205;-62
2022/01/19 06:41:48;;;;;;;12.30;5.00;;;;;;;-3.24;67.55;101190.39;1736327;81;21197;-63
2022/01/19 06:44:53;;;;;;;7.35;4.15;;;;;;;-3.23;67.72;101189.44;1738849;81;21848;-64
2022/01/19 06:47:58;;;;;;;5.80;3.67;;;;;;;-3.17;67.81;101189.61;1739044;82;21241;-64
2022/01/19 06:51:04;;;;;;;6.75;3.55;;;;;;;-3.12;67.56;101196.97;1741483;81;21193;-64
2022/01/19 06:54:14;;;;;;;8.23;4.85;;;;;;;-3.20;67.29;101181.27;1732117;81;21343;-64
2022/01/19 06:57:19;;;;;;;9.63;5.55;;;;;;;-3.25;67.10;101182.44;1745057;81;21184;-64
2022/01/19 07:00:41;;;;;;;;;;;;;;;-3.31;66.81;101183.56;1738151;81;21374;-63
2022/01/19 07:04:03;;;;;;;11.85;5.72;;;;;;;-3.38;66.70;101191.45;1730055;81;20512;-63
2022/01/19 07:07:07;;;;;;;9.18;4.58;;;;;;;-3.45;66.87;101188.67;1741584;81;21225;-62
2022/01/19 07:10:17;;;;;;;12.50;4.80;;;;;;;-3.36;66.99;101180.22;1757109;81;21384;-63
2022/01/19 07:13:23;;;;;;;6.97;3.87;;;;;;;-3.29;66.88;101189.73;1736644;82;21248;-63
2022/01/19 07:16:36;;;;;;;5.70;4.17;;;;;;;-3.21;66.68;101190.70;1764038;80;21407;-63
2022/01/19 07:20:24;;;;;;;10.10;5.08;;;;;;;-3.20;66.46;101185.73;1722314;83;21440;-64
2022/01/19 07:23:37;;;;;;;5.53;3.90;;;;;;;-3.25;66.22;101193.14;1701298;83;21331;-63
2022/01/19 07:26:42;;;;;;;8.30;5.53;;;;;;;-3.26;66.16;101194.05;1733054;81;21435;-62
2022/01/19 07:29:51;;;;;;;8.08;4.05;;;;;;;-3.34;66.30;101201.56;1737755;82;21382;-62
2022/01/19 07:33:00;;;;;;;6.83;4.30;;;;;;;-3.29;66.37;101199.09;1734825;82;21183;-65
2022/01/19 07:36:10;;;;;;;7.87;4.28;;;;;;;-3.23;66.32;101207.30;1745828;81;21236;-63
2022/01/19 07:39:16;;;;;;;11.68;5.55;;;;;;;-3.14;66.25;101201.55;1759424;81;21193;-63
2022/01/19 07:42:25;;;;;;;7.37;3.87;;;;;;;-3.09;66.04;101203.06;1764078;80;21190;-63
2022/01/19 07:45:50;;;;;;;9.85;4.70;;;;;;;-2.95;65.81;101202.45;1729259;83;21331;-62
2022/01/19 07:49:03;;;;;;;10.23;5.05;;;;;;;-2.84;65.49;101198.80;1727930;80;21217;-63
2022/01/19 07:52:30;;;;;;;8.58;4.37;;;;;;;-2.73;65.29;101195.59;1735122;81;21294;-63
2022/01/19 07:55:40;;;;;;;7.12;4.22;;;;;;;-2.60;64.90;101193.59;1733950;82;21193;-63
2022/01/19 07:58:52;;;;;;;6.58;3.83;;;;;;;-2.51;64.76;101190.48;1702949;82;21296;-63
2022/01/19 08:02:03;;;;;;;8.60;4.15;;;;;;;-2.40;64.29;101198.88;1743727;81;21226;-64
2022/01/19 08:05:27;;;;;;;6.87;4.33;;;;;;;-2.51;63.67;101188.27;1737715;81;21224;-64
2022/01/19 08:08:35;;;;;;;9.18;5.28;;;;;;;-2.61;63.81;101187.84;1740506;81;21235;-63
2022/01/19 08:11:42;;;;;;;7.30;5.28;;;;;;;-2.52;63.51;101190.56;1737180;82;21189;-62
2022/01/19 08:14:51;;;;;;;7.60;3.35;;;;;;;-2.56;62.99;101196.53;1731621;82;21217;-63
2022/01/19 08:18:00;;;;;;;7.45;4.80;;;;;;;-2.62;62.54;101197.30;1746542;81;21186;-63
2022/01/19 08:21:06;;;;;;;7.45;4.20;;;;;;;-2.84;62.21;101200.13;1732988;81;21194;-62
2022/01/19 08:24:20;;;;;;;7.12;4.60;;;;;;;-2.87;62.40;101213.64;1735785;81;21213;-62
2022/01/19 08:27:28;;;;;;;6.85;4.40;;;;;;;-2.92;62.08;101194.27;1670631;86;21781;-64
2022/01/19 08:30:33;;;;;;;8.80;4.72;;;;;;;-2.82;61.93;101206.76;1700053;83;21213;-63
2022/01/19 08:33:43;;;;;;;9.05;4.30;;;;;;;-2.81;61.84;101198.64;1704250;82;21237;-63
2022/01/19 08:36:54;;;;;;;9.58;5.75;;;;;;;-2.74;61.51;101205.92;1699435;83;21551;-63
2022/01/19 08:40:04;;;;;;;6.60;4.17;;;;;;;-2.80;61.09;101215.11;1735918;82;21228;-63
2022/01/19 08:43:12;;;;;;;5.85;3.65;;;;;;;-2.92;60.81;101202.30;1745494;81;21210;-63
2022/01/19 08:46:18;;;;;;;6.80;4.03;;;;;;;-3.00;60.92;101203.13;1698179;84;21496;-63
2022/01/19 08:49:41;;;;;;;8.43;5.22;;;;;;;-3.02;61.13;101205.45;1673568;84;21242;-63
2022/01/19 08:53:07;;;;;;;24.05;11.48;;;;;;;-2.95;61.20;101205.12;1670937;86;21188;-63
2022/01/19 08:56:14;;;;;;;8.50;5.87;;;;;;;-3.00;60.88;101211.16;1688284;84;21737;-63
2022/01/19 08:59:19;;;;;;;9.65;5.92;;;;;;;-3.12;60.93;101201.87;1703129;79;21292;-63
2022/01/19 09:02:25;;;;;;;8.65;5.00;;;;;;;-2.98;61.34;101199.87;1795711;78;21351;-62
2022/01/19 09:05:31;;;;;;;9.03;5.00;;;;;;;-2.82;61.21;101193.36;1803272;78;21609;-63
2022/01/19 09:08:41;;;;;;;9.15;5.50;;;;;;;-2.81;60.75;101186.59;1803665;78;21700;-62
2022/01/19 09:11:48;;;;;;;8.08;4.40;;;;;;;-2.74;60.77;101185.34;1807531;78;21343;-62
2022/01/19 09:14:54;;;;;;;11.60;4.45;;;;;;;-2.63;60.43;101195.08;1800251;79;21390;-63
2022/01/19 09:18:02;;;;;;;6.80;4.10;;;;;;;-2.61;60.14;101186.50;1803195;78;21340;-63
2022/01/19 09:21:08;;;;;;;5.55;3.83;;;;;;;-2.49;60.12;101193.94;1797378;79;21331;-63
2022/01/19 09:24:14;;;;;;;11.53;4.75;;;;;;;-2.34;59.86;101202.59;1805403;78;21723;-64
2022/01/19 09:27:19;;;;;;;12.23;6.08;;;;;;;-2.22;59.60;101203.32;1799200;78;21298;-63
2022/01/19 09:30:26;;;;;;;7.30;4.53;;;;;;;-2.11;59.10;101205.00;1802377;78;21811;-63
2022/01/19 09:33:32;;;;;;;8.05;4.10;;;;;;;-2.21;58.42;101201.52;1736619;81;21367;-63
2022/01/19 09:36:44;;;;;;;5.67;3.12;;;;;;;-2.28;58.37;101197.38;1798932;78;21225;-64
2022/01/19 09:39:46;;;;;;;7.35;3.65;;;;;;;-2.29;57.74;101227.83;1802908;79;21506;-63
2022/01/19 09:42:54;;;;;;;8.00;4.42;;;;;;;-2.50;57.46;101211.44;1803105;79;21389;-63
2022/01/19 09:46:03;;;;;;;5.47;3.90;;;;;;;-2.61;57.33;101216.44;1804216;78;21328;-64
2022/01/19 09:49:09;;;;;;;5.22;3.33;;;;;;;-2.64;57.45;101226.84;1801940;78;21558;-62
2022/01/19 09:52:15;;;;;;;5.87;4.20;;;;;;;-2.65;57.18;101228.26;1827226;78;21329;-63
2022/01/19 09:55:20;;;;;;;7.97;4.17;;;;;;;-2.85;57.23;101237.22;1724617;81;21873;-62
2022/01/19 09:58:25;;;;;;;7.75;3.80;;;;;;;-3.04;57.36;101228.28;1788094;78;21797;-66
2022/01/19 10:01:33;;;;;;;8.28;3.85;;;;;;;-3.17;57.64;101217.72;1777869;80;21377;-63
2022/01/19 10:04:48;;;;;;;6.70;4.37;;;;;;;-3.37;58.07;101225.78;1819189;78;21216;-63
2022/01/19 10:07:57;;;;;;;6.33;3.08;;;;;;;-3.39;58.65;101219.63;1802165;78;21173;-64
2022/01/19 10:11:26;;;;;;;10.15;6.15;;;;;;;-3.38;58.65;101212.86;1772496;79;21182;-63
2022/01/19 10:17:55;;;;;;;5.78;3.27;;;;;;;-3.22;58.75;101193.00;1794780;79;21184;-64
2022/01/19 10:21:17;;;;;;;6.60;4.03;;;;;;;-3.26;58.76;101202.97;1795036;79;21197;-63
2022/01/19 10:24:29;;;;;;;5.05;3.47;;;;;;;-3.40;58.84;101194.69;1797580;78;21332;-62
2022/01/19 10:27:46;;;;;;;5.90;3.60;;;;;;;-3.25;59.23;101200.68;1797988;79;21193;-63
2022/01/19 10:30:52;;;;;;;7.83;3.77;;;;;;;-3.02;59.19;101188.05;1804729;79;21589;-63
2022/01/19 10:34:21;;;;;;;6.25;3.80;;;;;;;-2.77;59.08;101188.17;1797190;79;21721;-63
2022/01/19 10:37:35;;;;;;;7.33;3.55;;;;;;;-2.57;58.70;101178.73;1795900;79;21247;-63
2022/01/19 10:40:41;;;;;;;6.67;3.10;;;;;;;-2.60;58.13;101184.20;1797547;79;21252;-63
2022/01/19 10:43:51;;;;;;;6.47;4.40;;;;;;;-2.67;57.96;101168.05;1797377;79;21189;-64
2022/01/19 10:46:58;;;;;;;8.30;5.20;;;;;;;-2.62;58.16;101174.52;1797681;78;21172;-63
2022/01/19 10:50:04;;;;;;;9.05;5.28;;;;;;;-2.44;58.48;101166.45;1762466;80;21196;-63
2022/01/19 10:53:12;;;;;;;9.78;5.55;;;;;;;-2.25;58.36;101161.91;1789803;79;21169;-63
2022/01/19 10:56:37;;;;;;;9.00;4.35;;;;;;;-2.18;57.88;101156.66;1798296;78;21231;-62
2022/01/19 10:59:43;;;;;;;8.43;4.53;;;;;;;-2.20;57.77;101167.04;1800834;78;21236;-63
2022/01/19 11:02:49;;;;;;;9.30;5.35;;;;;;;-2.38;57.31;101164.80;1794439;80;21354;-63
2022/01/19 11:06:06;;;;;;;11.38;5.45;;;;;;;-2.59;57.45;101175.25;1798346;79;21722;-62
2022/01/19 11:09:14;;;;;;;8.93;5.22;;;;;;;-2.45;58.01;101162.05;1806661;78;21744;-64
2022/01/19 11:12:21;;;;;;;8.75;4.65;;;;;;;-2.22;57.73;101159.08;1798671;79;21201;-63
2022/01/19 11:15:27;;;;;;;7.12;3.98;;;;;;;-2.31;57.17;101155.98;1801134;78;21367;-64
2022/01/19 11:18:39;;;;;;;7.83;5.00;;;;;;;-2.50;57.13;101157.38;1802731;78;21216;-64
2022/01/19 11:22:05;;;;;;;6.55;4.58;;;;;;;-2.40;57.50;101160.47;1754679;81;21248;-65
2022/01/19 11:25:27;;;;;;;6.78;3.92;;;;;;;-2.22;57.34;101163.09;1756915;81;21735;-63
2022/01/19 11:28:44;;;;;;;7.30;4.22;;;;;;;-2.06;57.21;101168.59;1744794;81;21738;-63
2022/01/19 11:31:50;;;;;;;12.50;5.92;;;;;;;-1.96;56.82;101159.11;1745415;81;21190;-65
2022/01/19 11:34:57;;;;;;;8.33;4.15;;;;;;;-1.84;56.49;101164.71;1807001;78;21327;-63
2022/01/19 11:38:01;;;;;;;11.12;6.17;;;;;;;-1.86;56.22;101163.95;1797774;78;21294;-62
2022/01/19 11:41:10;;;;;;;6.58;4.40;;;;;;;-1.80;56.25;101156.03;1796121;78;21201;-62
2022/01/19 11:44:40;;;;;;;7.83;4.67;;;;;;;-1.70;56.02;101162.17;1798694;78;21720;-63
2022/01/19 11:47:49;;;;;;;8.60;4.90;;;;;;;-1.64;55.99;101156.98;1741012;81;21220;-62
2022/01/19 11:50:59;;;;;;;10.03;4.47;;;;;;;-1.46;55.96;101168.11;1740955;81;21705;-63
2022/01/19 11:54:22;;;;;;;8.48;4.87;;;;;;;-1.33;55.60;101158.42;1797397;78;21259;-62
2022/01/19 11:57:36;;;;;;;7.70;4.67;;;;;;;-1.21;55.30;101162.27;1797968;78;21149;-63
2022/01/19 12:00:41;;;;;;;8.40;4.22;;;;;;;-1.17;54.68;101150.43;1798072;78;21200;-63
2022/01/19 12:03:47;;;;;;;9.20;4.85;;;;;;;-1.17;54.48;101147.75;1817394;78;21710;-62
2022/01/19 12:06:55;;;;;;;9.03;4.62;;;;;;;-1.28;53.95;101151.48;1801387;78;21201;-63
2022/01/19 12:10:05;;;;;;;7.80;3.67;;;;;;;-1.34;53.99;101150.45;1715765;81;21849;-62
2022/01/19 12:17:08;;;;;;;9.28;4.75;;;;;;;-1.52;53.95;101143.39;1738913;81;21702;-63
2022/01/19 12:20:13;;;;;;;12.85;6.10;;;;;;;-1.60;54.13;101144.66;1744505;81;21229;-62
2022/01/19 12:23:38;;;;;;;12.68;7.20;;;;;;;-1.55;54.25;101143.94;1738755;81;21245;-62
2022/01/19 12:27:22;;;;;;;12.90;7.37;;;;;;;-1.47;54.03;101147.55;1728558;83;21229;-63
2022/01/19 12:30:36;;;;;;;11.08;5.17;;;;;;;-1.46;54.00;101155.14;1717411;82;21291;-63
2022/01/19 12:33:49;;;;;;;12.82;6.70;;;;;;;-1.60;53.69;101162.56;1758566;81;21264;-62
2022/01/19 12:37:03;;;;;;;7.30;4.65;;;;;;;-1.71;53.92;101151.52;1762840;80;21774;-63
2022/01/19 12:40:19;;;;;;;11.68;6.05;;;;;;;-1.65;54.33;101157.44;1735154;82;21414;-62
2022/01/19 12:43:43;;;;;;;11.10;5.62;;;;;;;-1.46;54.32;101168.11;1761431;80;21718;-62
2022/01/19 12:46:52;;;;;;;10.18;5.95;;;;;;;-1.37;53.85;101164.04;1744582;81;21411;-63
2022/01/19 12:50:03;;;;;;;11.33;5.83;;;;;;;-1.36;53.74;101165.80;1737412;81;21371;-63
2022/01/19 12:53:16;;;;;;;10.60;6.03;;;;;;;-1.37;53.64;101166.27;1748857;81;21198;-63
2022/01/19 12:56:22;;;;;;;9.10;4.40;;;;;;;-1.35;53.72;101174.23;1753331;81;21263;-62
2022/01/19 12:59:29;;;;;;;15.03;6.80;;;;;;;-1.27;53.69;101170.67;1732709;82;21449;-61
2022/01/19 13:02:40;;;;;;;16.25;7.50;;;;;;;-1.22;53.80;101178.01;1735438;79;21229;-62
2022/01/19 13:06:08;;;;;;;14.83;7.37;;;;;;;-1.06;54.05;101175.73;1681380;84;21213;-62
2022/01/19 13:09:34;;;;;;;18.60;8.70;;;;;;;-0.96;53.73;101177.45;1650137;86;21256;-62
2022/01/19 13:12:55;;;;;;;13.65;7.72;;;;;;;-0.95;53.61;101183.23;1688093;84;21603;-61
2022/01/19 13:16:01;;;;;;;13.28;6.87;;;;;;;-0.96;53.49;101183.70;1687934;84;21244;-62
2022/01/19 13:19:14;;;;;;;18.00;10.03;;;;;;;-1.02;53.50;101189.41;1700989;83;21285;-62
2022/01/19 13:22:20;;;;;;;15.95;8.45;;;;;;;-0.95;53.70;101195.33;1722421;82;21300;-62
2022/01/19 13:25:34;;;;;;;13.28;7.42;;;;;;;-0.92;53.53;101187.09;1729309;81;21224;-62
2022/01/19 13:28:43;;;;;;;16.10;8.35;;;;;;;-0.96;53.33;101194.45;1691652;84;21829;-61
2022/01/19 13:32:02;;;;;;;18.07;8.63;;;;;;;-1.06;53.26;101196.37;1674934;85;21220;-62
2022/01/19 13:35:11;;;;;;;24.02;12.15;;;;;;;-1.11;53.51;101197.95;1685691;84;21788;-62
2022/01/19 13:38:21;;;;;;;26.27;12.40;;;;;;;-1.17;53.39;101190.72;1698341;83;21257;-62
2022/01/19 13:41:31;;;;;;;24.27;11.38;;;;;;;-1.23;53.52;101198.61;1733129;81;21241;-63
2022/01/19 13:44:47;;;;;;;17.77;9.98;;;;;;;-1.29;53.45;101192.23;1741175;81;21691;-63
2022/01/19 13:51:24;;;;;;;13.45;8.08;;;;;;;-1.40;53.79;101191.06;1686079;83;21738;-63
2022/01/19 13:54:29;;;;;;;24.35;12.98;;;;;;;-1.42;53.84;101196.97;1697929;84;21300;-62
2022/01/19 13:57:38;;;;;;;20.52;11.70;;;;;;;-1.47;53.86;101206.62;1684156;83;21296;-63
2022/01/19 14:00:59;;;;;;;21.82;12.95;;;;;;;-1.56;53.90;101203.08;1695873;84;21778;-63
2022/01/19 14:04:06;;;;;;;27.67;14.53;;;;;;;-1.71;53.94;101202.51;1708395;80;21332;-63
2022/01/19 14:07:17;;;;;;;22.65;13.80;;;;;;;-1.88;54.20;101198.02;1797734;79;21343;-63
2022/01/19 14:10:23;;;;;;;27.15;15.85;;;;;;;-2.00;54.47;101203.14;1801537;78;21360;-63
2022/01/19 14:13:41;;;;;;;35.30;19.20;;;;;;;-2.09;54.88;101199.55;1797603;78;21283;-63
2022/01/19 14:16:55;;;;;;;63.98;27.48;;;;;;;-2.19;55.04;101197.80;1797780;79;21232;-63
2022/01/19 14:20:03;;;;;;;71.75;28.95;;;;;;;-2.31;55.24;101189.50;1798152;79;21247;-63
2022/01/19 14:23:15;;;;;;;106.95;39.20;;;;;;;-2.48;55.32;101190.34;1797924;79;21217;-64
2022/01/19 14:26:20;;;;;;;81.95;34.63;;;;;;;-2.59;55.60;101199.36;1799214;78;21724;-64
2022/01/19 14:29:28;;;;;;;80.42;34.05;;;;;;;-2.68;55.88;101189.55;1801841;79;21733;-63
2022/01/19 14:32:57;;;;;;;80.95;36.33;;;;;;;-2.76;56.06;101194.41;1819850;78;21343;-63
2022/01/19 14:36:05;;;;;;;89.45;36.80;;;;;;;-2.85;56.17;101201.05;1773204;79;21248;-64
2022/01/19 14:39:11;;;;;;;139.45;55.05;;;;;;;-3.00;56.44;101191.07;1728878;82;21422;-65
2022/01/19 14:42:18;;;;;;;105.70;43.68;;;;;;;-3.10;56.73;101192.42;1746423;81;21220;-65
2022/01/19 14:45:38;;;;;;;128.82;47.43;;;;;;;-3.26;56.86;101188.70;1750314;81;21325;-65
2022/01/19 14:48:53;;;;;;;112.35;42.23;;;;;;;-3.39;57.09;101189.73;1737268;82;21233;-64
2022/01/19 14:52:00;;;;;;;147.90;54.30;;;;;;;-3.53;57.23;101197.50;1755351;81;21195;-65
2022/01/19 14:55:09;;;;;;;176.95;66.25;;;;;;;-3.63;57.70;101197.98;1746872;81;21750;-64
2022/01/19 14:58:15;;;;;;;186.97;63.87;;;;;;;-3.62;57.99;101200.59;1744373;81;21173;-68
2022/01/19 15:01:20;;;;;;;115.37;38.28;;;;;;;-3.65;58.11;101198.52;1798299;79;21216;-66
2022/01/19 15:04:28;;;;;;;113.40;37.65;;;;;;;-3.74;58.02;101202.94;1802230;78;21204;-67
2022/01/19 15:07:40;;;;;;;70.67;25.20;;;;;;;-3.84;58.21;101202.91;1760736;80;21352;-64
2022/01/19 15:10:45;;;;;;;131.65;41.83;;;;;;;-3.91;58.58;101207.66;1772858;80;21718;-64
2022/01/19 15:13:51;;;;;;;128.50;39.40;;;;;;;-3.96;58.66;101210.09;1749793;81;21208;-63
2022/01/19 15:16:58;;;;;;;69.97;30.05;;;;;;;-4.11;58.59;101198.73;1765732;80;21196;-64
2022/01/19 15:20:07;;;;;;;63.13;29.67;;;;;;;-4.17;58.95;101192.31;1791702;80;21766;-64
2022/01/19 15:23:17;;;;;;;66.00;30.65;;;;;;;-4.26;59.01;101187.32;1791772;79;21204;-63
2022/01/19 15:26:23;;;;;;;77.82;37.25;;;;;;;-4.41;59.12;101199.54;1791423;80;21188;-63
2022/01/19 15:29:34;;;;;;;93.52;44.30;;;;;;;-4.50;59.34;101191.02;1790651;79;21224;-64
2022/01/19 15:32:43;;;;;;;102.42;47.78;;;;;;;-4.61;59.55;101192.77;1791455;80;21490;-64
2022/01/19 15:35:50;;;;;;;113.65;53.65;;;;;;;-4.71;59.60;101200.27;1779429;79;22057;-64
2022/01/19 15:38:59;;;;;;;116.43;52.17;;;;;;;-4.84;59.59;101191.03;1783596;80;21287;-64
2022/01/19 15:42:07;;;;;;;115.80;54.00;;;;;;;-4.96;59.89;101198.16;1767577;79;21181;-64
2022/01/19 15:45:15;;;;;;;111.05;54.75;;;;;;;-5.06;60.21;101208.77;1760209;81;21193;-64
2022/01/19 15:48:22;;;;;;;107.78;52.17;;;;;;;-5.07;60.80;101204.38;1760512;81;21384;-64
2022/01/19 15:51:30;;;;;;;103.45;49.25;;;;;;;-5.05;61.25;101208.31;1781663;80;21202;-65
2022/01/19 15:54:35;;;;;;;112.00;55.63;;;;;;;-5.06;61.42;101212.77;1779860;80;21614;-65
2022/01/19 15:57:40;;;;;;;112.15;55.80;;;;;;;-5.08;61.45;101197.76;1731414;81;21561;-64
2022/01/19 16:00:47;;;;;;;126.05;60.15;;;;;;;-5.13;61.40;101196.60;1743625;81;21276;-64
2022/01/19 16:03:54;;;;;;;127.50;65.00;;;;;;;-5.14;61.43;101202.87;1720335;82;21201;-64
2022/01/19 16:07:00;;;;;;;133.60;65.45;;;;;;;-5.22;61.25;101198.75;1704843;81;21507;-65
2022/01/19 16:10:07;;;;;;;166.90;82.78;;;;;;;-5.30;61.41;101196.37;1704355;84;21798;-65
2022/01/19 16:13:12;;;;;;;150.27;78.05;;;;;;;-5.35;61.45;101200.13;1704899;84;21204;-65
2022/01/19 16:16:18;;;;;;;157.32;76.77;;;;;;;-5.41;61.54;101199.02;1704455;84;21264;-66
2022/01/19 16:19:24;;;;;;;138.12;70.50;;;;;;;-5.56;61.16;101199.11;1763075;81;21549;-66